Afton, California
Current Conditions -  °F | °C
As of 3:53 PM on Sunday 23 Nov 2014 (Local Time) from KOVE Reporting Station
Clear Clear  
Wind Chill: 57°   Ceiling: Unl
Heat Index: 57°   Visibility: 10mi
Dew Point: 43°   Wind: 0mph
Humidity: 59%   Direction: NA
Pressure: 30.29"   Gusts: NA
Location:  39.4608°N, 121.937°W
Report Text: KOVE 232353Z AUTO 00000KT 10SM CLR 14/06 A3029 RMK AO2 SLP258 T01390061 10150 20094 53001
Loading
Personal Weather Stations






























Interactive Weather Map New forecast layout! Learn more

10-Day Weather Forecast

Advertisements
Track Severe Weather on mobile